sensor_id;sensor_type;location;lat;lon;timestamp;temperature;humidity
61591;DHT22;57639;52.410;-1.966;2023-07-22T00:01:26;18.60;56.20
61591;DHT22;57639;52.410;-1.966;2023-07-22T00:04:33;18.60;56.00
61591;DHT22;57639;52.410;-1.966;2023-07-22T00:07:39;18.60;56.00
61591;DHT22;57639;52.410;-1.966;2023-07-22T00:10:47;18.60;56.10
61591;DHT22;57639;52.410;-1.966;2023-07-22T00:13:56;18.60;55.90
61591;DHT22;57639;52.410;-1.966;2023-07-22T00:17:05;18.60;56.10
61591;DHT22;57639;52.410;-1.966;2023-07-22T00:20:12;18.60;56.10
61591;DHT22;57639;52.410;-1.966;2023-07-22T00:23:19;18.60;56.00
61591;DHT22;57639;52.410;-1.966;2023-07-22T00:26:28;18.60;56.10
61591;DHT22;57639;52.410;-1.966;2023-07-22T00:29:37;18.60;56.30
61591;DHT22;57639;52.410;-1.966;2023-07-22T00:32:43;18.60;56.20
61591;DHT22;57639;52.410;-1.966;2023-07-22T00:35:50;18.60;56.20
61591;DHT22;57639;52.410;-1.966;2023-07-22T00:38:59;18.60;56.30
61591;DHT22;57639;52.410;-1.966;2023-07-22T00:42:06;18.60;56.40
61591;DHT22;57639;52.410;-1.966;2023-07-22T00:45:16;18.60;56.60
61591;DHT22;57639;52.410;-1.966;2023-07-22T00:48:22;18.60;56.60
61591;DHT22;57639;52.410;-1.966;2023-07-22T00:51:29;18.60;57.00
61591;DHT22;57639;52.410;-1.966;2023-07-22T00:54:35;18.50;56.80
61591;DHT22;57639;52.410;-1.966;2023-07-22T00:57:42;18.50;56.90
61591;DHT22;57639;52.410;-1.966;2023-07-22T01:00:51;18.50;56.80
61591;DHT22;57639;52.410;-1.966;2023-07-22T01:03:58;18.60;56.90
61591;DHT22;57639;52.410;-1.966;2023-07-22T01:07:06;18.50;57.00
61591;DHT22;57639;52.410;-1.966;2023-07-22T01:10:13;18.40;57.00
61591;DHT22;57639;52.410;-1.966;2023-07-22T01:13:20;18.40;57.10
61591;DHT22;57639;52.410;-1.966;2023-07-22T01:16:29;18.50;57.00
61591;DHT22;57639;52.410;-1.966;2023-07-22T01:19:36;18.40;57.10
61591;DHT22;57639;52.410;-1.966;2023-07-22T01:22:49;18.50;57.00
61591;DHT22;57639;52.410;-1.966;2023-07-22T01:25:56;18.50;56.90
61591;DHT22;57639;52.410;-1.966;2023-07-22T01:29:04;18.50;56.80
61591;DHT22;57639;52.410;-1.966;2023-07-22T01:32:10;18.50;56.90
61591;DHT22;57639;52.410;-1.966;2023-07-22T01:35:17;18.50;56.90
61591;DHT22;57639;52.410;-1.966;2023-07-22T01:38:26;18.50;56.90
61591;DHT22;57639;52.410;-1.966;2023-07-22T01:41:32;18.50;56.90
61591;DHT22;57639;52.410;-1.966;2023-07-22T01:44:40;18.50;56.90
61591;DHT22;57639;52.410;-1.966;2023-07-22T01:47:46;18.50;57.00
61591;DHT22;57639;52.410;-1.966;2023-07-22T01:50:53;18.50;56.90
61591;DHT22;57639;52.410;-1.966;2023-07-22T01:54:02;18.50;56.90
61591;DHT22;57639;52.410;-1.966;2023-07-22T01:57:08;18.50;57.00
61591;DHT22;57639;52.410;-1.966;2023-07-22T02:00:14;18.50;57.00
61591;DHT22;57639;52.410;-1.966;2023-07-22T02:03:21;18.40;57.10
61591;DHT22;57639;52.410;-1.966;2023-07-22T02:06:28;18.50;57.20
61591;DHT22;57639;52.410;-1.966;2023-07-22T02:09:37;18.40;57.20
61591;DHT22;57639;52.410;-1.966;2023-07-22T02:12:44;18.40;57.10
61591;DHT22;57639;52.410;-1.966;2023-07-22T02:15:50;18.40;57.30
61591;DHT22;57639;52.410;-1.966;2023-07-22T02:18:57;18.50;57.10
61591;DHT22;57639;52.410;-1.966;2023-07-22T02:22:04;18.40;57.10
61591;DHT22;57639;52.410;-1.966;2023-07-22T02:25:13;18.40;57.10
61591;DHT22;57639;52.410;-1.966;2023-07-22T02:28:20;18.40;57.70
61591;DHT22;57639;52.410;-1.966;2023-07-22T02:31:27;18.40;57.40
61591;DHT22;57639;52.410;-1.966;2023-07-22T02:34:36;18.40;57.50
61591;DHT22;57639;52.410;-1.966;2023-07-22T02:37:45;18.40;57.50
61591;DHT22;57639;52.410;-1.966;2023-07-22T02:40:54;18.30;57.50
61591;DHT22;57639;52.410;-1.966;2023-07-22T02:44:00;18.30;57.70
61591;DHT22;57639;52.410;-1.966;2023-07-22T02:47:07;18.40;57.60
61591;DHT22;57639;52.410;-1.966;2023-07-22T02:50:13;18.30;57.70
61591;DHT22;57639;52.410;-1.966;2023-07-22T02:53:21;18.30;57.80
61591;DHT22;57639;52.410;-1.966;2023-07-22T02:56:30;18.30;57.70
61591;DHT22;57639;52.410;-1.966;2023-07-22T02:59:37;18.40;57.40
61591;DHT22;57639;52.410;-1.966;2023-07-22T03:02:43;18.30;57.30
61591;DHT22;57639;52.410;-1.966;2023-07-22T03:05:49;18.30;57.20
61591;DHT22;57639;52.410;-1.966;2023-07-22T03:08:55;18.30;57.10
61591;DHT22;57639;52.410;-1.966;2023-07-22T03:12:05;18.20;57.10
61591;DHT22;57639;52.410;-1.966;2023-07-22T03:15:11;18.20;57.50
61591;DHT22;57639;52.410;-1.966;2023-07-22T03:18:18;18.20;57.30
61591;DHT22;57639;52.410;-1.966;2023-07-22T03:21:25;18.20;57.30
61591;DHT22;57639;52.410;-1.966;2023-07-22T03:24:32;18.20;57.40
61591;DHT22;57639;52.410;-1.966;2023-07-22T03:27:41;18.20;57.40
61591;DHT22;57639;52.410;-1.966;2023-07-22T03:30:48;18.20;57.50
61591;DHT22;57639;52.410;-1.966;2023-07-22T03:33:54;18.20;57.40
61591;DHT22;57639;52.410;-1.966;2023-07-22T03:37:01;18.20;57.40
61591;DHT22;57639;52.410;-1.966;2023-07-22T03:40:08;18.20;57.20
61591;DHT22;57639;52.410;-1.966;2023-07-22T03:43:25;18.20;57.40
61591;DHT22;57639;52.410;-1.966;2023-07-22T03:46:31;18.20;57.40
61591;DHT22;57639;52.410;-1.966;2023-07-22T03:49:40;18.10;57.40
61591;DHT22;57639;52.410;-1.966;2023-07-22T03:52:46;18.20;57.50
61591;DHT22;57639;52.410;-1.966;2023-07-22T03:55:53;18.20;57.50
61591;DHT22;57639;52.410;-1.966;2023-07-22T03:59:02;18.10;57.50
61591;DHT22;57639;52.410;-1.966;2023-07-22T04:02:09;18.10;57.50
61591;DHT22;57639;52.410;-1.966;2023-07-22T04:05:15;18.10;57.60
61591;DHT22;57639;52.410;-1.966;2023-07-22T04:08:21;18.20;57.60
61591;DHT22;57639;52.410;-1.966;2023-07-22T04:11:28;18.10;57.60
61591;DHT22;57639;52.410;-1.966;2023-07-22T04:14:37;18.10;57.70
61591;DHT22;57639;52.410;-1.966;2023-07-22T04:17:44;18.10;57.80
61591;DHT22;57639;52.410;-1.966;2023-07-22T04:20:55;18.10;57.90
61591;DHT22;57639;52.410;-1.966;2023-07-22T04:24:02;18.10;58.00
61591;DHT22;57639;52.410;-1.966;2023-07-22T04:27:10;18.10;57.90
61591;DHT22;57639;52.410;-1.966;2023-07-22T04:30:19;18.10;57.80
61591;DHT22;57639;52.410;-1.966;2023-07-22T04:33:27;18.10;57.70
61591;DHT22;57639;52.410;-1.966;2023-07-22T04:36:34;18.10;57.70
61591;DHT22;57639;52.410;-1.966;2023-07-22T04:39:40;18.10;57.80
61591;DHT22;57639;52.410;-1.966;2023-07-22T04:42:49;18.10;57.90
61591;DHT22;57639;52.410;-1.966;2023-07-22T04:45:58;18.10;57.90
61591;DHT22;57639;52.410;-1.966;2023-07-22T04:49:05;18.10;57.80
61591;DHT22;57639;52.410;-1.966;2023-07-22T04:52:12;18.10;57.90
61591;DHT22;57639;52.410;-1.966;2023-07-22T04:55:19;18.10;57.70
61591;DHT22;57639;52.410;-1.966;2023-07-22T04:58:25;18.10;57.70
61591;DHT22;57639;52.410;-1.966;2023-07-22T05:01:35;18.10;57.70
61591;DHT22;57639;52.410;-1.966;2023-07-22T05:04:41;18.10;57.80
61591;DHT22;57639;52.410;-1.966;2023-07-22T05:07:47;18.10;57.90
61591;DHT22;57639;52.410;-1.966;2023-07-22T05:10:55;18.00;57.80
61591;DHT22;57639;52.410;-1.966;2023-07-22T05:14:01;18.10;57.80
61591;DHT22;57639;52.410;-1.966;2023-07-22T05:17:11;18.00;57.90
61591;DHT22;57639;52.410;-1.966;2023-07-22T05:20:17;18.10;57.90
61591;DHT22;57639;52.410;-1.966;2023-07-22T05:23:24;18.00;58.00
61591;DHT22;57639;52.410;-1.966;2023-07-22T05:26:30;18.00;58.00
61591;DHT22;57639;52.410;-1.966;2023-07-22T05:29:37;18.10;57.80
61591;DHT22;57639;52.410;-1.966;2023-07-22T05:32:46;18.00;58.10
61591;DHT22;57639;52.410;-1.966;2023-07-22T05:35:53;18.00;58.10
61591;DHT22;57639;52.410;-1.966;2023-07-22T05:38:59;18.00;58.20
61591;DHT22;57639;52.410;-1.966;2023-07-22T05:42:06;18.00;58.80
61591;DHT22;57639;52.410;-1.966;2023-07-22T05:45:12;18.00;58.90
61591;DHT22;57639;52.410;-1.966;2023-07-22T05:48:22;18.00;58.70
61591;DHT22;57639;52.410;-1.966;2023-07-22T05:51:30;18.00;58.40
61591;DHT22;57639;52.410;-1.966;2023-07-22T05:54:36;18.00;58.40
61591;DHT22;57639;52.410;-1.966;2023-07-22T05:57:43;18.00;58.50
61591;DHT22;57639;52.410;-1.966;2023-07-22T06:00:49;18.00;58.70
61591;DHT22;57639;52.410;-1.966;2023-07-22T06:03:59;18.00;58.10
61591;DHT22;57639;52.410;-1.966;2023-07-22T06:07:08;18.00;58.10
61591;DHT22;57639;52.410;-1.966;2023-07-22T06:10:18;18.00;58.20
61591;DHT22;57639;52.410;-1.966;2023-07-22T06:13:24;18.00;58.10
61591;DHT22;57639;52.410;-1.966;2023-07-22T06:16:30;18.00;58.20
61591;DHT22;57639;52.410;-1.966;2023-07-22T06:19:42;18.00;58.10
61591;DHT22;57639;52.410;-1.966;2023-07-22T06:22:48;18.00;58.20
61591;DHT22;57639;52.410;-1.966;2023-07-22T06:25:54;17.90;58.10
61591;DHT22;57639;52.410;-1.966;2023-07-22T06:29:00;18.00;58.40
61591;DHT22;57639;52.410;-1.966;2023-07-22T06:32:07;17.90;58.20
61591;DHT22;57639;52.410;-1.966;2023-07-22T06:35:16;18.00;58.20
61591;DHT22;57639;52.410;-1.966;2023-07-22T06:38:23;18.00;58.40
61591;DHT22;57639;52.410;-1.966;2023-07-22T06:41:29;17.90;58.20
61591;DHT22;57639;52.410;-1.966;2023-07-22T06:44:35;17.90;58.30
61591;DHT22;57639;52.410;-1.966;2023-07-22T06:47:42;17.90;58.30
61591;DHT22;57639;52.410;-1.966;2023-07-22T06:50:53;17.90;58.30
61591;DHT22;57639;52.410;-1.966;2023-07-22T06:54:00;17.90;58.40
61591;DHT22;57639;52.410;-1.966;2023-07-22T06:57:06;18.00;58.90
61591;DHT22;57639;52.410;-1.966;2023-07-22T07:00:13;17.90;58.60
61591;DHT22;57639;52.410;-1.966;2023-07-22T07:03:20;18.00;58.60
61591;DHT22;57639;52.410;-1.966;2023-07-22T07:06:31;17.90;58.60
61591;DHT22;57639;52.410;-1.966;2023-07-22T07:09:38;17.90;58.60
61591;DHT22;57639;52.410;-1.966;2023-07-22T07:12:46;17.90;58.90
61591;DHT22;57639;52.410;-1.966;2023-07-22T07:15:53;17.90;59.10
61591;DHT22;57639;52.410;-1.966;2023-07-22T07:19:03;17.90;58.90
61591;DHT22;57639;52.410;-1.966;2023-07-22T07:22:14;17.90;58.80
61591;DHT22;57639;52.410;-1.966;2023-07-22T07:25:20;17.90;59.10
61591;DHT22;57639;52.410;-1.966;2023-07-22T07:28:27;17.90;59.00
61591;DHT22;57639;52.410;-1.966;2023-07-22T07:31:33;17.90;59.00
61591;DHT22;57639;52.410;-1.966;2023-07-22T07:34:43;17.90;58.90
61591;DHT22;57639;52.410;-1.966;2023-07-22T07:37:52;17.90;59.20
61591;DHT22;57639;52.410;-1.966;2023-07-22T07:41:02;17.90;59.30
61591;DHT22;57639;52.410;-1.966;2023-07-22T07:44:11;17.90;59.20
61591;DHT22;57639;52.410;-1.966;2023-07-22T07:47:17;17.90;59.20
61591;DHT22;57639;52.410;-1.966;2023-07-22T07:50:24;17.90;59.60
61591;DHT22;57639;52.410;-1.966;2023-07-22T07:53:33;17.90;59.90
61591;DHT22;57639;52.410;-1.966;2023-07-22T07:56:39;17.90;59.80
61591;DHT22;57639;52.410;-1.966;2023-07-22T07:59:46;18.00;59.80
61591;DHT22;57639;52.410;-1.966;2023-07-22T08:02:52;18.00;59.90
61591;DHT22;57639;52.410;-1.966;2023-07-22T08:05:58;18.00;60.00
61591;DHT22;57639;52.410;-1.966;2023-07-22T08:09:08;18.10;60.00
61591;DHT22;57639;52.410;-1.966;2023-07-22T08:12:19;18.10;60.10
61591;DHT22;57639;52.410;-1.966;2023-07-22T08:15:25;18.10;60.30
61591;DHT22;57639;52.410;-1.966;2023-07-22T08:18:34;18.10;60.30
61591;DHT22;57639;52.410;-1.966;2023-07-22T08:21:41;18.10;60.30
61591;DHT22;57639;52.410;-1.966;2023-07-22T08:24:50;18.10;60.40
61591;DHT22;57639;52.410;-1.966;2023-07-22T08:27:56;18.10;60.40
61591;DHT22;57639;52.410;-1.966;2023-07-22T08:31:03;18.10;60.40
61591;DHT22;57639;52.410;-1.966;2023-07-22T08:34:09;18.10;60.30
61591;DHT22;57639;52.410;-1.966;2023-07-22T08:37:21;18.10;60.50
61591;DHT22;57639;52.410;-1.966;2023-07-22T08:40:54;18.10;60.50
61591;DHT22;57639;52.410;-1.966;2023-07-22T08:44:01;18.00;60.60
61591;DHT22;57639;52.410;-1.966;2023-07-22T08:47:15;18.00;60.60
61591;DHT22;57639;52.410;-1.966;2023-07-22T08:50:29;18.00;60.70
61591;DHT22;57639;52.410;-1.966;2023-07-22T08:53:39;18.00;60.70
61591;DHT22;57639;52.410;-1.966;2023-07-22T08:56:51;18.00;60.60
61591;DHT22;57639;52.410;-1.966;2023-07-22T09:00:00;18.00;60.50
61591;DHT22;57639;52.410;-1.966;2023-07-22T09:03:10;18.00;60.60
61591;DHT22;57639;52.410;-1.966;2023-07-22T09:06:20;18.00;60.60
61591;DHT22;57639;52.410;-1.966;2023-07-22T09:09:30;18.00;60.60
61591;DHT22;57639;52.410;-1.966;2023-07-22T09:12:42;18.00;60.50
61591;DHT22;57639;52.410;-1.966;2023-07-22T09:15:48;18.00;60.50
61591;DHT22;57639;52.410;-1.966;2023-07-22T09:18:57;18.00;60.60
61591;DHT22;57639;52.410;-1.966;2023-07-22T09:22:07;18.00;60.60
61591;DHT22;57639;52.410;-1.966;2023-07-22T09:25:15;18.00;60.60
61591;DHT22;57639;52.410;-1.966;2023-07-22T09:28:47;18.00;60.60
61591;DHT22;57639;52.410;-1.966;2023-07-22T09:31:54;18.00;60.80
61591;DHT22;57639;52.410;-1.966;2023-07-22T09:35:00;18.00;60.80
61591;DHT22;57639;52.410;-1.966;2023-07-22T09:38:10;18.00;60.90
61591;DHT22;57639;52.410;-1.966;2023-07-22T09:41:19;18.00;61.00
61591;DHT22;57639;52.410;-1.966;2023-07-22T09:44:31;17.90;61.10
61591;DHT22;57639;52.410;-1.966;2023-07-22T09:47:41;18.00;61.20
61591;DHT22;57639;52.410;-1.966;2023-07-22T09:50:55;17.90;61.20
61591;DHT22;57639;52.410;-1.966;2023-07-22T09:54:03;18.00;61.10
61591;DHT22;57639;52.410;-1.966;2023-07-22T09:57:13;18.00;61.10
61591;DHT22;57639;52.410;-1.966;2023-07-22T10:00:28;18.00;61.00
61591;DHT22;57639;52.410;-1.966;2023-07-22T10:03:37;18.00;61.10
61591;DHT22;57639;52.410;-1.966;2023-07-22T10:06:48;18.00;61.20
61591;DHT22;57639;52.410;-1.966;2023-07-22T10:09:57;18.00;61.20
61591;DHT22;57639;52.410;-1.966;2023-07-22T10:13:08;18.00;61.20
61591;DHT22;57639;52.410;-1.966;2023-07-22T10:16:22;18.00;61.20
61591;DHT22;57639;52.410;-1.966;2023-07-22T10:19:29;18.00;61.20
61591;DHT22;57639;52.410;-1.966;2023-07-22T10:22:37;18.00;61.30
61591;DHT22;57639;52.410;-1.966;2023-07-22T10:25:46;18.00;61.20
61591;DHT22;57639;52.410;-1.966;2023-07-22T10:28:55;18.00;61.10
61591;DHT22;57639;52.410;-1.966;2023-07-22T10:32:06;18.10;61.20
61591;DHT22;57639;52.410;-1.966;2023-07-22T10:35:18;18.00;61.10
61591;DHT22;57639;52.410;-1.966;2023-07-22T10:38:31;18.00;61.20
61591;DHT22;57639;52.410;-1.966;2023-07-22T10:41:37;18.00;61.30
61591;DHT22;57639;52.410;-1.966;2023-07-22T10:44:44;18.00;61.20
61591;DHT22;57639;52.410;-1.966;2023-07-22T10:48:05;18.00;61.30
61591;DHT22;57639;52.410;-1.966;2023-07-22T10:56:35;18.10;61.50
61591;DHT22;57639;52.410;-1.966;2023-07-22T11:09:38;18.10;61.60
61591;DHT22;57639;52.410;-1.966;2023-07-22T11:12:45;18.10;61.70
61591;DHT22;57639;52.410;-1.966;2023-07-22T11:15:52;18.00;62.60
61591;DHT22;57639;52.410;-1.966;2023-07-22T11:18:58;18.10;62.30
61591;DHT22;57639;52.410;-1.966;2023-07-22T11:22:05;18.10;62.60
61591;DHT22;57639;52.410;-1.966;2023-07-22T11:25:19;18.10;63.10
61591;DHT22;57639;52.410;-1.966;2023-07-22T11:28:26;18.20;63.10
61591;DHT22;57639;52.410;-1.966;2023-07-22T11:31:39;18.10;63.30
61591;DHT22;57639;52.410;-1.966;2023-07-22T11:34:55;18.10;63.40
61591;DHT22;57639;52.410;-1.966;2023-07-22T11:38:03;18.10;63.50
61591;DHT22;57639;52.410;-1.966;2023-07-22T11:41:17;18.10;63.60
61591;DHT22;57639;52.410;-1.966;2023-07-22T11:44:27;18.20;63.90
61591;DHT22;57639;52.410;-1.966;2023-07-22T11:47:34;18.20;64.00
61591;DHT22;57639;52.410;-1.966;2023-07-22T11:50:40;18.20;64.10
61591;DHT22;57639;52.410;-1.966;2023-07-22T11:53:48;18.20;64.10
61591;DHT22;57639;52.410;-1.966;2023-07-22T11:57:08;18.20;64.10
61591;DHT22;57639;52.410;-1.966;2023-07-22T12:00:15;18.20;64.30
61591;DHT22;57639;52.410;-1.966;2023-07-22T12:03:22;18.30;64.30
61591;DHT22;57639;52.410;-1.966;2023-07-22T12:06:28;18.30;64.30
61591;DHT22;57639;52.410;-1.966;2023-07-22T12:09:34;18.30;64.50
61591;DHT22;57639;52.410;-1.966;2023-07-22T12:12:44;18.30;64.60
61591;DHT22;57639;52.410;-1.966;2023-07-22T12:16:02;18.30;64.60
61591;DHT22;57639;52.410;-1.966;2023-07-22T12:19:09;18.20;64.70
61591;DHT22;57639;52.410;-1.966;2023-07-22T12:22:15;18.20;64.60
61591;DHT22;57639;52.410;-1.966;2023-07-22T12:25:22;18.30;64.60
61591;DHT22;57639;52.410;-1.966;2023-07-22T12:28:38;18.20;64.60
61591;DHT22;57639;52.410;-1.966;2023-07-22T12:31:44;18.20;64.70
61591;DHT22;57639;52.410;-1.966;2023-07-22T12:34:51;18.30;64.70
61591;DHT22;57639;52.410;-1.966;2023-07-22T12:38:04;18.20;64.80
61591;DHT22;57639;52.410;-1.966;2023-07-22T12:41:11;18.30;64.70
61591;DHT22;57639;52.410;-1.966;2023-07-22T12:44:21;18.20;64.70
61591;DHT22;57639;52.410;-1.966;2023-07-22T12:47:28;18.20;64.80
61591;DHT22;57639;52.410;-1.966;2023-07-22T12:50:35;18.20;64.80
61591;DHT22;57639;52.410;-1.966;2023-07-22T12:53:44;18.20;64.60
61591;DHT22;57639;52.410;-1.966;2023-07-22T12:56:54;18.20;64.50
61591;DHT22;57639;52.410;-1.966;2023-07-22T13:00:03;18.20;64.60
61591;DHT22;57639;52.410;-1.966;2023-07-22T13:03:12;18.20;64.60
61591;DHT22;57639;52.410;-1.966;2023-07-22T13:06:22;18.20;64.60
61591;DHT22;57639;52.410;-1.966;2023-07-22T13:09:30;18.30;64.40
61591;DHT22;57639;52.410;-1.966;2023-07-22T13:12:37;18.30;64.30
61591;DHT22;57639;52.410;-1.966;2023-07-22T13:15:46;18.30;64.40
61591;DHT22;57639;52.410;-1.966;2023-07-22T13:18:53;18.20;64.40
61591;DHT22;57639;52.410;-1.966;2023-07-22T13:22:02;18.30;64.80
61591;DHT22;57639;52.410;-1.966;2023-07-22T13:25:12;18.20;64.70
61591;DHT22;57639;52.410;-1.966;2023-07-22T13:28:18;18.30;64.70
61591;DHT22;57639;52.410;-1.966;2023-07-22T13:31:27;18.20;64.80
61591;DHT22;57639;52.410;-1.966;2023-07-22T13:34:34;18.30;64.70
61591;DHT22;57639;52.410;-1.966;2023-07-22T13:37:40;18.40;64.60
61591;DHT22;57639;52.410;-1.966;2023-07-22T13:40:48;18.40;64.70
61591;DHT22;57639;52.410;-1.966;2023-07-22T13:43:55;18.40;65.00
61591;DHT22;57639;52.410;-1.966;2023-07-22T13:47:04;18.40;65.20
61591;DHT22;57639;52.410;-1.966;2023-07-22T13:50:12;18.40;65.50
61591;DHT22;57639;52.410;-1.966;2023-07-22T13:53:22;18.40;65.60
61591;DHT22;57639;52.410;-1.966;2023-07-22T13:56:28;18.40;65.70
61591;DHT22;57639;52.410;-1.966;2023-07-22T13:59:35;18.40;65.80
61591;DHT22;57639;52.410;-1.966;2023-07-22T14:02:44;18.30;65.80
61591;DHT22;57639;52.410;-1.966;2023-07-22T14:05:51;18.40;65.80
61591;DHT22;57639;52.410;-1.966;2023-07-22T14:08:58;18.40;65.80
61591;DHT22;57639;52.410;-1.966;2023-07-22T14:12:09;18.40;65.80
61591;DHT22;57639;52.410;-1.966;2023-07-22T14:15:16;18.40;65.80
61591;DHT22;57639;52.410;-1.966;2023-07-22T14:18:25;18.40;65.80
61591;DHT22;57639;52.410;-1.966;2023-07-22T14:21:31;18.40;65.80
61591;DHT22;57639;52.410;-1.966;2023-07-22T14:24:38;18.50;65.80
61591;DHT22;57639;52.410;-1.966;2023-07-22T14:27:44;18.50;65.60
61591;DHT22;57639;52.410;-1.966;2023-07-22T14:30:50;18.50;65.70
61591;DHT22;57639;52.410;-1.966;2023-07-22T14:34:00;18.50;65.70
61591;DHT22;57639;52.410;-1.966;2023-07-22T14:37:07;18.50;65.60
61591;DHT22;57639;52.410;-1.966;2023-07-22T14:40:13;18.50;65.70
61591;DHT22;57639;52.410;-1.966;2023-07-22T14:43:20;18.40;65.70
61591;DHT22;57639;52.410;-1.966;2023-07-22T14:46:26;18.50;65.70
61591;DHT22;57639;52.410;-1.966;2023-07-22T14:49:35;18.50;65.90
61591;DHT22;57639;52.410;-1.966;2023-07-22T14:52:41;18.50;65.80
61591;DHT22;57639;52.410;-1.966;2023-07-22T14:55:48;18.50;66.00
61591;DHT22;57639;52.410;-1.966;2023-07-22T14:58:54;18.40;66.00
61591;DHT22;57639;52.410;-1.966;2023-07-22T15:02:01;18.50;66.10
61591;DHT22;57639;52.410;-1.966;2023-07-22T15:05:10;18.50;66.10
61591;DHT22;57639;52.410;-1.966;2023-07-22T15:08:17;18.50;66.10
61591;DHT22;57639;52.410;-1.966;2023-07-22T15:11:23;18.50;66.10
61591;DHT22;57639;52.410;-1.966;2023-07-22T15:14:31;18.50;66.10
61591;DHT22;57639;52.410;-1.966;2023-07-22T15:17:38;18.50;66.10
61591;DHT22;57639;52.410;-1.966;2023-07-22T15:20:47;18.50;66.10
61591;DHT22;57639;52.410;-1.966;2023-07-22T15:23:54;18.50;66.20
61591;DHT22;57639;52.410;-1.966;2023-07-22T15:27:00;18.40;66.20
61591;DHT22;57639;52.410;-1.966;2023-07-22T15:30:07;18.40;66.20
61591;DHT22;57639;52.410;-1.966;2023-07-22T15:33:14;18.50;66.10
61591;DHT22;57639;52.410;-1.966;2023-07-22T15:36:23;18.50;66.20
61591;DHT22;57639;52.410;-1.966;2023-07-22T15:39:29;18.40;66.20
61591;DHT22;57639;52.410;-1.966;2023-07-22T15:42:37;18.50;66.20
61591;DHT22;57639;52.410;-1.966;2023-07-22T15:45:43;18.50;66.10
61591;DHT22;57639;52.410;-1.966;2023-07-22T15:48:50;18.50;66.10
61591;DHT22;57639;52.410;-1.966;2023-07-22T15:52:00;18.50;66.10
61591;DHT22;57639;52.410;-1.966;2023-07-22T15:55:07;18.50;66.10
61591;DHT22;57639;52.410;-1.966;2023-07-22T15:58:14;18.50;66.20
61591;DHT22;57639;52.410;-1.966;2023-07-22T16:01:20;18.60;66.20
61591;DHT22;57639;52.410;-1.966;2023-07-22T16:04:26;18.60;66.20
61591;DHT22;57639;52.410;-1.966;2023-07-22T16:07:36;18.60;66.10
61591;DHT22;57639;52.410;-1.966;2023-07-22T16:10:42;18.60;66.20
61591;DHT22;57639;52.410;-1.966;2023-07-22T16:13:48;18.60;66.30
61591;DHT22;57639;52.410;-1.966;2023-07-22T16:16:55;18.60;66.40
61591;DHT22;57639;52.410;-1.966;2023-07-22T16:20:01;18.60;66.30
61591;DHT22;57639;52.410;-1.966;2023-07-22T16:23:11;18.60;66.20
61591;DHT22;57639;52.410;-1.966;2023-07-22T16:26:17;18.60;66.20
61591;DHT22;57639;52.410;-1.966;2023-07-22T16:29:23;18.60;66.20
61591;DHT22;57639;52.410;-1.966;2023-07-22T16:32:30;18.60;66.20
61591;DHT22;57639;52.410;-1.966;2023-07-22T16:35:40;18.60;66.30
61591;DHT22;57639;52.410;-1.966;2023-07-22T16:38:49;18.60;66.30
61591;DHT22;57639;52.410;-1.966;2023-07-22T16:41:55;18.60;66.60
61591;DHT22;57639;52.410;-1.966;2023-07-22T16:45:02;18.60;66.60
61591;DHT22;57639;52.410;-1.966;2023-07-22T16:48:10;18.60;66.50
61591;DHT22;57639;52.410;-1.966;2023-07-22T16:51:16;18.60;66.60
61591;DHT22;57639;52.410;-1.966;2023-07-22T16:54:28;18.60;66.90
61591;DHT22;57639;52.410;-1.966;2023-07-22T16:57:35;18.60;66.90
61591;DHT22;57639;52.410;-1.966;2023-07-22T17:00:42;18.60;67.00
61591;DHT22;57639;52.410;-1.966;2023-07-22T17:03:50;18.60;67.00
61591;DHT22;57639;52.410;-1.966;2023-07-22T17:06:56;18.60;67.10
61591;DHT22;57639;52.410;-1.966;2023-07-22T17:10:07;18.60;67.20
61591;DHT22;57639;52.410;-1.966;2023-07-22T17:13:13;18.60;67.20
61591;DHT22;57639;52.410;-1.966;2023-07-22T17:16:20;18.70;67.20
61591;DHT22;57639;52.410;-1.966;2023-07-22T17:19:26;18.70;67.20
61591;DHT22;57639;52.410;-1.966;2023-07-22T17:22:32;18.70;67.20
61591;DHT22;57639;52.410;-1.966;2023-07-22T17:25:42;18.60;67.10
61591;DHT22;57639;52.410;-1.966;2023-07-22T17:28:48;18.60;67.10
61591;DHT22;57639;52.410;-1.966;2023-07-22T17:31:54;18.60;67.30
61591;DHT22;57639;52.410;-1.966;2023-07-22T17:35:01;18.60;67.30
61591;DHT22;57639;52.410;-1.966;2023-07-22T17:38:07;18.60;67.20
61591;DHT22;57639;52.410;-1.966;2023-07-22T17:41:16;18.60;67.30
61591;DHT22;57639;52.410;-1.966;2023-07-22T17:44:23;18.50;67.30
61591;DHT22;57639;52.410;-1.966;2023-07-22T17:47:29;18.50;67.30
61591;DHT22;57639;52.410;-1.966;2023-07-22T17:50:36;18.50;67.30
61591;DHT22;57639;52.410;-1.966;2023-07-22T17:53:43;18.50;67.40
61591;DHT22;57639;52.410;-1.966;2023-07-22T17:56:52;18.50;67.40
61591;DHT22;57639;52.410;-1.966;2023-07-22T17:59:58;18.40;67.40
61591;DHT22;57639;52.410;-1.966;2023-07-22T18:03:04;18.40;67.20
61591;DHT22;57639;52.410;-1.966;2023-07-22T18:06:10;18.40;67.20
61591;DHT22;57639;52.410;-1.966;2023-07-22T18:09:17;18.40;67.10
61591;DHT22;57639;52.410;-1.966;2023-07-22T18:12:26;18.40;67.00
61591;DHT22;57639;52.410;-1.966;2023-07-22T18:15:32;18.40;67.00
61591;DHT22;57639;52.410;-1.966;2023-07-22T18:18:39;18.40;66.90
61591;DHT22;57639;52.410;-1.966;2023-07-22T18:21:45;18.40;67.00
61591;DHT22;57639;52.410;-1.966;2023-07-22T18:24:52;18.40;67.00
61591;DHT22;57639;52.410;-1.966;2023-07-22T18:28:01;18.40;67.00
61591;DHT22;57639;52.410;-1.966;2023-07-22T18:31:07;18.30;67.00
61591;DHT22;57639;52.410;-1.966;2023-07-22T18:34:14;18.30;66.90
61591;DHT22;57639;52.410;-1.966;2023-07-22T18:37:25;18.30;67.00
61591;DHT22;57639;52.410;-1.966;2023-07-22T18:40:31;18.30;67.00
61591;DHT22;57639;52.410;-1.966;2023-07-22T18:43:41;18.30;66.90
61591;DHT22;57639;52.410;-1.966;2023-07-22T18:46:47;18.30;66.90
61591;DHT22;57639;52.410;-1.966;2023-07-22T18:49:53;18.30;66.90
61591;DHT22;57639;52.410;-1.966;2023-07-22T18:53:00;18.30;67.00
61591;DHT22;57639;52.410;-1.966;2023-07-22T18:56:06;18.30;67.00
61591;DHT22;57639;52.410;-1.966;2023-07-22T18:59:15;18.30;67.00
61591;DHT22;57639;52.410;-1.966;2023-07-22T19:02:22;18.30;67.00
61591;DHT22;57639;52.410;-1.966;2023-07-22T19:05:30;18.30;67.10
61591;DHT22;57639;52.410;-1.966;2023-07-22T19:08:36;18.20;67.10
61591;DHT22;57639;52.410;-1.966;2023-07-22T19:11:43;18.20;67.10
61591;DHT22;57639;52.410;-1.966;2023-07-22T19:14:52;18.20;67.10
61591;DHT22;57639;52.410;-1.966;2023-07-22T19:17:58;18.20;67.10
61591;DHT22;57639;52.410;-1.966;2023-07-22T19:21:05;18.20;67.30
61591;DHT22;57639;52.410;-1.966;2023-07-22T19:24:19;18.30;67.70
61591;DHT22;57639;52.410;-1.966;2023-07-22T19:27:28;18.40;67.50
61591;DHT22;57639;52.410;-1.966;2023-07-22T19:30:41;18.50;67.50
61591;DHT22;57639;52.410;-1.966;2023-07-22T19:33:48;18.60;67.20
61591;DHT22;57639;52.410;-1.966;2023-07-22T19:36:54;18.60;67.30
61591;DHT22;57639;52.410;-1.966;2023-07-22T19:40:00;18.60;67.80
61591;DHT22;57639;52.410;-1.966;2023-07-22T19:43:07;18.60;67.90